sensor_id;sensor_type;location;lat;lon;timestamp;P1;durP1;ratioP1;P2;durP2;ratioP2
7887;SDS011;3989;48.810;9.208;2023-07-02T00:01:07;4.00;;;3.70;;
7887;SDS011;3989;48.810;9.208;2023-07-02T00:03:34;4.40;;;4.00;;
7887;SDS011;3989;48.810;9.208;2023-07-02T00:06:02;4.43;;;4.13;;
7887;SDS011;3989;48.810;9.208;2023-07-02T00:08:28;4.50;;;4.13;;
7887;SDS011;3989;48.810;9.208;2023-07-02T00:10:55;4.17;;;3.97;;
7887;SDS011;3989;48.810;9.208;2023-07-02T00:13:21;4.40;;;4.00;;
7887;SDS011;3989;48.810;9.208;2023-07-02T00:15:48;5.10;;;4.63;;
7887;SDS011;3989;48.810;9.208;2023-07-02T00:18:15;4.10;;;3.80;;
7887;SDS011;3989;48.810;9.208;2023-07-02T00:20:42;4.23;;;3.93;;
7887;SDS011;3989;48.810;9.208;2023-07-02T00:23:10;4.67;;;4.17;;
7887;SDS011;3989;48.810;9.208;2023-07-02T00:25:36;4.70;;;4.40;;
7887;SDS011;3989;48.810;9.208;2023-07-02T00:28:03;5.80;;;3.87;;
7887;SDS011;3989;48.810;9.208;2023-07-02T00:30:30;4.33;;;4.03;;
7887;SDS011;3989;48.810;9.208;2023-07-02T00:32:56;4.80;;;4.40;;
7887;SDS011;3989;48.810;9.208;2023-07-02T00:35:23;4.50;;;4.10;;
7887;SDS011;3989;48.810;9.208;2023-07-02T00:37:49;4.43;;;3.97;;
7887;SDS011;3989;48.810;9.208;2023-07-02T00:40:17;4.83;;;4.47;;
7887;SDS011;3989;48.810;9.208;2023-07-02T00:42:44;4.30;;;4.00;;
7887;SDS011;3989;48.810;9.208;2023-07-02T00:45:10;4.50;;;4.27;;
7887;SDS011;3989;48.810;9.208;2023-07-02T00:47:37;4.60;;;4.20;;
7887;SDS011;3989;48.810;9.208;2023-07-02T00:50:04;4.13;;;3.80;;
7887;SDS011;3989;48.810;9.208;2023-07-02T00:52:34;4.80;;;4.50;;
7887;SDS011;3989;48.810;9.208;2023-07-02T00:55:01;4.73;;;4.10;;
7887;SDS011;3989;48.810;9.208;2023-07-02T00:57:29;4.60;;;3.93;;
7887;SDS011;3989;48.810;9.208;2023-07-02T00:59:56;4.27;;;3.93;;
7887;SDS011;3989;48.810;9.208;2023-07-02T01:02:25;4.00;;;3.70;;
7887;SDS011;3989;48.810;9.208;2023-07-02T01:04:54;3.63;;;3.43;;
7887;SDS011;3989;48.810;9.208;2023-07-02T01:07:23;4.17;;;3.90;;
7887;SDS011;3989;48.810;9.208;2023-07-02T01:09:50;3.90;;;3.50;;
7887;SDS011;3989;48.810;9.208;2023-07-02T01:12:17;3.97;;;3.67;;
7887;SDS011;3989;48.810;9.208;2023-07-02T01:14:48;3.70;;;3.40;;
7887;SDS011;3989;48.810;9.208;2023-07-02T01:17:17;4.50;;;4.10;;
7887;SDS011;3989;48.810;9.208;2023-07-02T01:19:48;3.63;;;3.43;;
7887;SDS011;3989;48.810;9.208;2023-07-02T01:22:16;3.93;;;3.53;;
7887;SDS011;3989;48.810;9.208;2023-07-02T01:24:44;3.80;;;3.50;;
7887;SDS011;3989;48.810;9.208;2023-07-02T01:27:12;5.03;;;3.30;;
7887;SDS011;3989;48.810;9.208;2023-07-02T01:29:39;3.10;;;2.90;;
7887;SDS011;3989;48.810;9.208;2023-07-02T01:32:06;3.20;;;3.00;;
7887;SDS011;3989;48.810;9.208;2023-07-02T01:34:33;4.63;;;3.40;;
7887;SDS011;3989;48.810;9.208;2023-07-02T01:37:02;3.10;;;3.00;;
7887;SDS011;3989;48.810;9.208;2023-07-02T01:39:29;3.27;;;3.10;;
7887;SDS011;3989;48.810;9.208;2023-07-02T01:42:06;3.37;;;3.17;;
7887;SDS011;3989;48.810;9.208;2023-07-02T01:44:33;3.60;;;3.30;;
7887;SDS011;3989;48.810;9.208;2023-07-02T01:47:00;3.43;;;3.20;;
7887;SDS011;3989;48.810;9.208;2023-07-02T01:49:27;3.37;;;3.07;;
7887;SDS011;3989;48.810;9.208;2023-07-02T01:51:54;3.23;;;2.97;;
7887;SDS011;3989;48.810;9.208;2023-07-02T01:54:23;3.50;;;3.30;;
7887;SDS011;3989;48.810;9.208;2023-07-02T01:56:52;3.50;;;3.17;;
7887;SDS011;3989;48.810;9.208;2023-07-02T01:59:18;3.30;;;3.20;;
7887;SDS011;3989;48.810;9.208;2023-07-02T02:01:45;3.80;;;3.50;;
7887;SDS011;3989;48.810;9.208;2023-07-02T02:04:12;4.07;;;3.67;;
7887;SDS011;3989;48.810;9.208;2023-07-02T02:06:39;2.97;;;2.87;;
7887;SDS011;3989;48.810;9.208;2023-07-02T02:09:07;3.63;;;3.33;;
7887;SDS011;3989;48.810;9.208;2023-07-02T02:11:38;3.93;;;3.60;;
7887;SDS011;3989;48.810;9.208;2023-07-02T02:14:06;3.40;;;3.10;;
7887;SDS011;3989;48.810;9.208;2023-07-02T02:16:33;3.80;;;3.47;;
7887;SDS011;3989;48.810;9.208;2023-07-02T02:19:00;3.60;;;3.30;;
7887;SDS011;3989;48.810;9.208;2023-07-02T02:21:27;3.83;;;3.63;;
7887;SDS011;3989;48.810;9.208;2023-07-02T02:23:54;3.60;;;3.30;;
7887;SDS011;3989;48.810;9.208;2023-07-02T02:26:21;3.73;;;3.40;;
7887;SDS011;3989;48.810;9.208;2023-07-02T02:28:49;3.57;;;3.37;;
7887;SDS011;3989;48.810;9.208;2023-07-02T02:31:16;3.77;;;3.47;;
7887;SDS011;3989;48.810;9.208;2023-07-02T02:33:43;6.50;;;3.10;;
7887;SDS011;3989;48.810;9.208;2023-07-02T02:36:10;3.50;;;3.30;;
7887;SDS011;3989;48.810;9.208;2023-07-02T02:38:36;3.70;;;3.37;;
7887;SDS011;3989;48.810;9.208;2023-07-02T02:41:03;3.03;;;2.83;;
7887;SDS011;3989;48.810;9.208;2023-07-02T02:43:30;3.10;;;2.90;;
7887;SDS011;3989;48.810;9.208;2023-07-02T02:45:58;3.03;;;2.83;;
7887;SDS011;3989;48.810;9.208;2023-07-02T02:48:24;3.10;;;2.90;;
7887;SDS011;3989;48.810;9.208;2023-07-02T02:50:51;3.53;;;2.87;;
7887;SDS011;3989;48.810;9.208;2023-07-02T02:53:17;2.90;;;2.70;;
7887;SDS011;3989;48.810;9.208;2023-07-02T02:55:44;3.10;;;2.90;;
7887;SDS011;3989;48.810;9.208;2023-07-02T02:58:11;3.00;;;2.73;;
7887;SDS011;3989;48.810;9.208;2023-07-02T03:00:37;3.20;;;2.90;;
7887;SDS011;3989;48.810;9.208;2023-07-02T03:03:09;3.10;;;2.80;;
7887;SDS011;3989;48.810;9.208;2023-07-02T03:05:35;3.40;;;3.20;;
7887;SDS011;3989;48.810;9.208;2023-07-02T03:08:02;3.83;;;3.47;;
7887;SDS011;3989;48.810;9.208;2023-07-02T03:10:29;3.50;;;3.20;;
7887;SDS011;3989;48.810;9.208;2023-07-02T03:12:55;3.20;;;3.00;;
7887;SDS011;3989;48.810;9.208;2023-07-02T03:15:22;3.43;;;3.13;;
7887;SDS011;3989;48.810;9.208;2023-07-02T03:17:48;2.90;;;2.80;;
7887;SDS011;3989;48.810;9.208;2023-07-02T03:20:16;2.50;;;2.40;;
7887;SDS011;3989;48.810;9.208;2023-07-02T03:22:43;3.07;;;2.53;;
7887;SDS011;3989;48.810;9.208;2023-07-02T03:25:09;4.23;;;2.60;;
7887;SDS011;3989;48.810;9.208;2023-07-02T03:27:36;3.37;;;2.90;;
7887;SDS011;3989;48.810;9.208;2023-07-02T03:30:03;3.20;;;3.00;;
7887;SDS011;3989;48.810;9.208;2023-07-02T03:32:30;3.63;;;3.03;;
7887;SDS011;3989;48.810;9.208;2023-07-02T03:34:57;3.23;;;3.00;;
7887;SDS011;3989;48.810;9.208;2023-07-02T03:37:25;3.97;;;3.57;;
7887;SDS011;3989;48.810;9.208;2023-07-02T03:39:51;5.63;;;3.47;;
7887;SDS011;3989;48.810;9.208;2023-07-02T03:42:18;3.77;;;3.40;;
7887;SDS011;3989;48.810;9.208;2023-07-02T03:44:44;5.97;;;3.70;;
7887;SDS011;3989;48.810;9.208;2023-07-02T03:47:11;4.33;;;3.80;;
7887;SDS011;3989;48.810;9.208;2023-07-02T03:49:41;4.27;;;3.83;;
7887;SDS011;3989;48.810;9.208;2023-07-02T03:52:07;5.07;;;3.40;;
7887;SDS011;3989;48.810;9.208;2023-07-02T03:54:35;4.10;;;3.80;;
7887;SDS011;3989;48.810;9.208;2023-07-02T03:57:02;5.00;;;3.90;;
7887;SDS011;3989;48.810;9.208;2023-07-02T03:59:29;5.17;;;3.80;;
7887;SDS011;3989;48.810;9.208;2023-07-02T04:01:56;6.43;;;3.93;;
7887;SDS011;3989;48.810;9.208;2023-07-02T04:04:22;5.90;;;4.17;;
7887;SDS011;3989;48.810;9.208;2023-07-02T04:06:49;3.93;;;3.60;;
7887;SDS011;3989;48.810;9.208;2023-07-02T04:09:15;4.93;;;4.20;;
7887;SDS011;3989;48.810;9.208;2023-07-02T04:11:44;4.87;;;4.40;;
7887;SDS011;3989;48.810;9.208;2023-07-02T04:14:11;4.90;;;4.50;;
7887;SDS011;3989;48.810;9.208;2023-07-02T04:16:37;5.40;;;3.60;;
7887;SDS011;3989;48.810;9.208;2023-07-02T04:19:04;5.17;;;4.20;;
7887;SDS011;3989;48.810;9.208;2023-07-02T04:21:31;4.17;;;3.87;;
7887;SDS011;3989;48.810;9.208;2023-07-02T04:23:57;6.27;;;3.67;;
7887;SDS011;3989;48.810;9.208;2023-07-02T04:26:24;6.57;;;3.97;;
7887;SDS011;3989;48.810;9.208;2023-07-02T04:28:53;5.23;;;3.47;;
7887;SDS011;3989;48.810;9.208;2023-07-02T04:31:19;4.03;;;3.40;;
7887;SDS011;3989;48.810;9.208;2023-07-02T04:33:46;4.27;;;3.87;;
7887;SDS011;3989;48.810;9.208;2023-07-02T04:36:13;5.23;;;3.70;;
7887;SDS011;3989;48.810;9.208;2023-07-02T04:38:39;4.43;;;4.03;;
7887;SDS011;3989;48.810;9.208;2023-07-02T04:41:06;3.90;;;3.60;;
7887;SDS011;3989;48.810;9.208;2023-07-02T04:43:35;4.40;;;4.00;;
7887;SDS011;3989;48.810;9.208;2023-07-02T04:46:03;3.67;;;3.40;;
7887;SDS011;3989;48.810;9.208;2023-07-02T04:48:32;7.07;;;4.23;;
7887;SDS011;3989;48.810;9.208;2023-07-02T04:50:58;4.97;;;3.60;;
7887;SDS011;3989;48.810;9.208;2023-07-02T04:53:25;5.17;;;3.83;;
7887;SDS011;3989;48.810;9.208;2023-07-02T04:55:52;6.00;;;4.57;;
7887;SDS011;3989;48.810;9.208;2023-07-02T04:58:18;6.00;;;3.83;;
7887;SDS011;3989;48.810;9.208;2023-07-02T05:00:45;4.10;;;3.80;;
7887;SDS011;3989;48.810;9.208;2023-07-02T05:03:13;6.60;;;3.70;;
7887;SDS011;3989;48.810;9.208;2023-07-02T05:05:40;3.80;;;3.50;;
7887;SDS011;3989;48.810;9.208;2023-07-02T05:08:06;5.30;;;4.10;;
7887;SDS011;3989;48.810;9.208;2023-07-02T05:10:33;4.90;;;4.50;;
7887;SDS011;3989;48.810;9.208;2023-07-02T05:13:00;4.20;;;3.80;;
7887;SDS011;3989;48.810;9.208;2023-07-02T05:15:26;5.73;;;3.90;;
7887;SDS011;3989;48.810;9.208;2023-07-02T05:17:53;4.87;;;4.27;;
7887;SDS011;3989;48.810;9.208;2023-07-02T05:20:22;5.67;;;3.13;;
7887;SDS011;3989;48.810;9.208;2023-07-02T05:22:49;4.20;;;3.80;;
7887;SDS011;3989;48.810;9.208;2023-07-02T05:25:15;3.33;;;3.03;;
7887;SDS011;3989;48.810;9.208;2023-07-02T05:27:42;3.67;;;2.87;;
7887;SDS011;3989;48.810;9.208;2023-07-02T05:30:09;3.90;;;3.30;;
7887;SDS011;3989;48.810;9.208;2023-07-02T05:32:36;5.70;;;3.53;;
7887;SDS011;3989;48.810;9.208;2023-07-02T05:35:04;4.23;;;3.83;;
7887;SDS011;3989;48.810;9.208;2023-07-02T05:37:32;3.33;;;3.00;;
7887;SDS011;3989;48.810;9.208;2023-07-02T05:39:59;6.50;;;3.63;;
7887;SDS011;3989;48.810;9.208;2023-07-02T05:42:26;3.57;;;3.23;;
7887;SDS011;3989;48.810;9.208;2023-07-02T05:44:52;4.33;;;3.73;;
7887;SDS011;3989;48.810;9.208;2023-07-02T05:47:19;5.07;;;3.53;;
7887;SDS011;3989;48.810;9.208;2023-07-02T05:49:45;4.10;;;3.60;;
7887;SDS011;3989;48.810;9.208;2023-07-02T05:52:12;6.43;;;3.83;;
7887;SDS011;3989;48.810;9.208;2023-07-02T05:54:40;5.90;;;3.37;;
7887;SDS011;3989;48.810;9.208;2023-07-02T05:57:07;6.83;;;4.37;;
7887;SDS011;3989;48.810;9.208;2023-07-02T05:59:33;6.10;;;4.10;;
7887;SDS011;3989;48.810;9.208;2023-07-02T06:02:00;5.63;;;3.67;;
7887;SDS011;3989;48.810;9.208;2023-07-02T06:04:26;6.83;;;3.43;;
7887;SDS011;3989;48.810;9.208;2023-07-02T06:06:53;6.43;;;3.97;;
7887;SDS011;3989;48.810;9.208;2023-07-02T06:09:20;6.83;;;3.70;;
7887;SDS011;3989;48.810;9.208;2023-07-02T06:11:48;5.53;;;4.13;;
7887;SDS011;3989;48.810;9.208;2023-07-02T06:14:14;6.30;;;4.50;;
7887;SDS011;3989;48.810;9.208;2023-07-02T06:16:41;5.27;;;3.87;;
7887;SDS011;3989;48.810;9.208;2023-07-02T06:19:07;7.17;;;4.50;;
7887;SDS011;3989;48.810;9.208;2023-07-02T06:21:34;7.00;;;4.50;;
7887;SDS011;3989;48.810;9.208;2023-07-02T06:24:01;5.03;;;4.53;;
7887;SDS011;3989;48.810;9.208;2023-07-02T06:26:28;8.13;;;4.13;;
7887;SDS011;3989;48.810;9.208;2023-07-02T06:28:56;5.57;;;4.63;;
7887;SDS011;3989;48.810;9.208;2023-07-02T06:31:23;8.20;;;4.80;;
7887;SDS011;3989;48.810;9.208;2023-07-02T06:33:50;7.47;;;5.93;;
7887;SDS011;3989;48.810;9.208;2023-07-02T06:36:16;9.10;;;5.35;;
7887;SDS011;3989;48.810;9.208;2023-07-02T06:38:43;9.65;;;5.72;;
7887;SDS011;3989;48.810;9.208;2023-07-02T06:41:10;9.07;;;6.03;;
7887;SDS011;3989;48.810;9.208;2023-07-02T06:43:37;8.48;;;5.68;;
7887;SDS011;3989;48.810;9.208;2023-07-02T06:46:05;6.78;;;6.13;;
7887;SDS011;3989;48.810;9.208;2023-07-02T06:48:31;8.93;;;6.25;;
7887;SDS011;3989;48.810;9.208;2023-07-02T06:50:59;10.93;;;6.57;;
7887;SDS011;3989;48.810;9.208;2023-07-02T06:53:25;9.52;;;6.13;;
7887;SDS011;3989;48.810;9.208;2023-07-02T06:55:52;10.95;;;6.63;;
7887;SDS011;3989;48.810;9.208;2023-07-02T06:58:18;9.15;;;6.80;;
7887;SDS011;3989;48.810;9.208;2023-07-02T07:00:45;9.13;;;6.15;;
7887;SDS011;3989;48.810;9.208;2023-07-02T07:03:13;12.32;;;7.13;;
7887;SDS011;3989;48.810;9.208;2023-07-02T07:05:40;10.35;;;7.13;;
7887;SDS011;3989;48.810;9.208;2023-07-02T07:08:07;10.88;;;6.63;;
7887;SDS011;3989;48.810;9.208;2023-07-02T07:10:33;9.80;;;7.70;;
7887;SDS011;3989;48.810;9.208;2023-07-02T07:13:00;10.05;;;7.18;;
7887;SDS011;3989;48.810;9.208;2023-07-02T07:15:29;9.73;;;6.97;;
7887;SDS011;3989;48.810;9.208;2023-07-02T07:17:58;10.73;;;7.07;;
7887;SDS011;3989;48.810;9.208;2023-07-02T07:20:26;13.27;;;7.70;;
7887;SDS011;3989;48.810;9.208;2023-07-02T07:22:52;10.23;;;8.27;;
7887;SDS011;3989;48.810;9.208;2023-07-02T07:25:19;11.30;;;8.32;;
7887;SDS011;3989;48.810;9.208;2023-07-02T07:27:46;11.63;;;8.50;;
7887;SDS011;3989;48.810;9.208;2023-07-02T07:30:12;13.02;;;8.43;;
7887;SDS011;3989;48.810;9.208;2023-07-02T07:32:39;12.73;;;7.82;;
7887;SDS011;3989;48.810;9.208;2023-07-02T07:35:06;12.70;;;8.65;;
7887;SDS011;3989;48.810;9.208;2023-07-02T07:37:35;11.73;;;8.25;;
7887;SDS011;3989;48.810;9.208;2023-07-02T07:40:03;13.90;;;8.93;;
7887;SDS011;3989;48.810;9.208;2023-07-02T07:42:31;12.75;;;9.80;;
7887;SDS011;3989;48.810;9.208;2023-07-02T07:44:58;16.63;;;9.93;;
7887;SDS011;3989;48.810;9.208;2023-07-02T07:47:24;15.38;;;10.18;;
7887;SDS011;3989;48.810;9.208;2023-07-02T07:49:51;13.80;;;8.85;;
7887;SDS011;3989;48.810;9.208;2023-07-02T07:52:18;14.35;;;9.25;;
7887;SDS011;3989;48.810;9.208;2023-07-02T07:54:46;13.60;;;9.25;;
7887;SDS011;3989;48.810;9.208;2023-07-02T07:57:13;13.60;;;9.90;;
7887;SDS011;3989;48.810;9.208;2023-07-02T07:59:39;13.57;;;10.02;;
7887;SDS011;3989;48.810;9.208;2023-07-02T08:02:06;13.52;;;9.55;;
7887;SDS011;3989;48.810;9.208;2023-07-02T08:04:34;13.68;;;10.38;;
7887;SDS011;3989;48.810;9.208;2023-07-02T08:07:01;13.00;;;9.52;;
7887;SDS011;3989;48.810;9.208;2023-07-02T08:09:29;15.05;;;10.30;;
7887;SDS011;3989;48.810;9.208;2023-07-02T08:11:57;14.00;;;9.27;;
7887;SDS011;3989;48.810;9.208;2023-07-02T08:14:23;13.80;;;9.80;;
7887;SDS011;3989;48.810;9.208;2023-07-02T08:16:50;13.02;;;9.32;;
7887;SDS011;3989;48.810;9.208;2023-07-02T08:19:17;15.68;;;9.73;;
7887;SDS011;3989;48.810;9.208;2023-07-02T08:21:45;13.02;;;9.73;;
7887;SDS011;3989;48.810;9.208;2023-07-02T08:24:12;15.35;;;9.88;;
7887;SDS011;3989;48.810;9.208;2023-07-02T08:26:38;14.20;;;9.95;;
7887;SDS011;3989;48.810;9.208;2023-07-02T08:29:06;14.55;;;10.00;;
7887;SDS011;3989;48.810;9.208;2023-07-02T08:31:33;14.85;;;10.23;;
7887;SDS011;3989;48.810;9.208;2023-07-02T08:34:00;12.95;;;10.57;;
7887;SDS011;3989;48.810;9.208;2023-07-02T08:36:27;14.02;;;10.07;;
7887;SDS011;3989;48.810;9.208;2023-07-02T08:38:54;11.85;;;9.70;;
7887;SDS011;3989;48.810;9.208;2023-07-02T08:41:21;10.70;;;7.78;;
7887;SDS011;3989;48.810;9.208;2023-07-02T08:43:48;13.73;;;9.23;;
7887;SDS011;3989;48.810;9.208;2023-07-02T08:46:18;14.02;;;9.50;;
7887;SDS011;3989;48.810;9.208;2023-07-02T08:48:44;11.73;;;9.00;;
7887;SDS011;3989;48.810;9.208;2023-07-02T08:51:12;13.85;;;9.05;;
7887;SDS011;3989;48.810;9.208;2023-07-02T08:53:41;12.25;;;8.45;;
7887;SDS011;3989;48.810;9.208;2023-07-02T08:56:07;16.55;;;9.85;;
7887;SDS011;3989;48.810;9.208;2023-07-02T08:58:34;15.05;;;8.88;;
7887;SDS011;3989;48.810;9.208;2023-07-02T09:01:05;12.70;;;8.40;;
7887;SDS011;3989;48.810;9.208;2023-07-02T09:03:34;12.23;;;9.02;;
7887;SDS011;3989;48.810;9.208;2023-07-02T09:06:03;13.63;;;8.40;;
7887;SDS011;3989;48.810;9.208;2023-07-02T09:08:31;9.63;;;8.32;;
7887;SDS011;3989;48.810;9.208;2023-07-02T09:11:06;11.05;;;8.80;;
7887;SDS011;3989;48.810;9.208;2023-07-02T09:13:44;11.40;;;8.57;;
7887;SDS011;3989;48.810;9.208;2023-07-02T09:16:22;13.18;;;8.70;;
7887;SDS011;3989;48.810;9.208;2023-07-02T09:19:01;12.20;;;8.93;;
7887;SDS011;3989;48.810;9.208;2023-07-02T09:21:37;9.18;;;7.63;;
7887;SDS011;3989;48.810;9.208;2023-07-02T09:24:12;13.95;;;8.85;;
7887;SDS011;3989;48.810;9.208;2023-07-02T09:26:48;15.50;;;9.35;;
7887;SDS011;3989;48.810;9.208;2023-07-02T09:29:31;13.10;;;9.30;;
7887;SDS011;3989;48.810;9.208;2023-07-02T09:32:13;14.93;;;10.07;;
7887;SDS011;3989;48.810;9.208;2023-07-02T09:34:41;12.57;;;9.30;;
7887;SDS011;3989;48.810;9.208;2023-07-02T09:37:09;16.42;;;9.35;;
7887;SDS011;3989;48.810;9.208;2023-07-02T09:39:36;13.82;;;9.68;;
7887;SDS011;3989;48.810;9.208;2023-07-02T09:42:05;14.60;;;9.80;;
7887;SDS011;3989;48.810;9.208;2023-07-02T09:44:33;12.65;;;8.27;;
7887;SDS011;3989;48.810;9.208;2023-07-02T09:47:01;13.23;;;9.18;;
7887;SDS011;3989;48.810;9.208;2023-07-02T09:49:31;13.27;;;9.23;;
7887;SDS011;3989;48.810;9.208;2023-07-02T09:52:00;12.20;;;9.30;;
7887;SDS011;3989;48.810;9.208;2023-07-02T09:54:28;9.95;;;8.63;;
7887;SDS011;3989;48.810;9.208;2023-07-02T09:56:55;13.77;;;8.93;;
7887;SDS011;3989;48.810;9.208;2023-07-02T09:59:22;15.02;;;10.38;;
7887;SDS011;3989;48.810;9.208;2023-07-02T10:01:49;10.75;;;9.45;;
7887;SDS011;3989;48.810;9.208;2023-07-02T10:04:17;12.55;;;9.05;;
7887;SDS011;3989;48.810;9.208;2023-07-02T10:06:45;13.60;;;9.75;;
7887;SDS011;3989;48.810;9.208;2023-07-02T10:09:16;12.27;;;8.95;;
7887;SDS011;3989;48.810;9.208;2023-07-02T10:11:43;12.50;;;9.48;;
7887;SDS011;3989;48.810;9.208;2023-07-02T10:14:10;12.70;;;9.73;;
7887;SDS011;3989;48.810;9.208;2023-07-02T10:16:50;14.00;;;9.90;;
7887;SDS011;3989;48.810;9.208;2023-07-02T10:19:17;13.10;;;10.60;;
7887;SDS011;3989;48.810;9.208;2023-07-02T10:21:44;12.75;;;9.75;;
7887;SDS011;3989;48.810;9.208;2023-07-02T10:24:12;15.63;;;9.10;;
7887;SDS011;3989;48.810;9.208;2023-07-02T10:26:53;9.90;;;8.70;;
7887;SDS011;3989;48.810;9.208;2023-07-02T10:29:22;10.85;;;8.55;;
7887;SDS011;3989;48.810;9.208;2023-07-02T10:31:51;13.50;;;10.32;;
7887;SDS011;3989;48.810;9.208;2023-07-02T10:34:35;15.00;;;11.15;;
7887;SDS011;3989;48.810;9.208;2023-07-02T10:37:02;16.10;;;10.45;;
7887;SDS011;3989;48.810;9.208;2023-07-02T10:39:31;14.82;;;9.02;;
7887;SDS011;3989;48.810;9.208;2023-07-02T10:42:09;13.02;;;10.75;;
7887;SDS011;3989;48.810;9.208;2023-07-02T10:44:46;13.57;;;9.20;;
7887;SDS011;3989;48.810;9.208;2023-07-02T10:47:14;12.23;;;9.82;;
7887;SDS011;3989;48.810;9.208;2023-07-02T10:49:40;12.32;;;9.35;;
7887;SDS011;3989;48.810;9.208;2023-07-02T10:52:07;9.82;;;8.55;;
7887;SDS011;3989;48.810;9.208;2023-07-02T10:54:40;14.63;;;9.90;;
7887;SDS011;3989;48.810;9.208;2023-07-02T10:57:09;12.20;;;9.68;;
7887;SDS011;3989;48.810;9.208;2023-07-02T10:59:36;11.20;;;9.18;;
7887;SDS011;3989;48.810;9.208;2023-07-02T11:02:03;12.60;;;9.80;;
7887;SDS011;3989;48.810;9.208;2023-07-02T11:04:31;15.23;;;10.70;;
7887;SDS011;3989;48.810;9.208;2023-07-02T11:06:59;14.90;;;10.93;;
7887;SDS011;3989;48.810;9.208;2023-07-02T11:09:26;12.90;;;10.07;;
7887;SDS011;3989;48.810;9.208;2023-07-02T11:11:53;11.55;;;9.38;;
7887;SDS011;3989;48.810;9.208;2023-07-02T11:14:29;15.55;;;10.35;;
7887;SDS011;3989;48.810;9.208;2023-07-02T11:16:56;14.52;;;9.80;;
7887;SDS011;3989;48.810;9.208;2023-07-02T11:19:30;10.98;;;9.60;;
7887;SDS011;3989;48.810;9.208;2023-07-02T11:21:58;14.23;;;10.70;;
7887;SDS011;3989;48.810;9.208;2023-07-02T11:24:29;12.23;;;10.15;;
7887;SDS011;3989;48.810;9.208;2023-07-02T11:26:58;12.57;;;9.55;;
7887;SDS011;3989;48.810;9.208;2023-07-02T11:29:25;11.63;;;10.10;;
7887;SDS011;3989;48.810;9.208;2023-07-02T11:31:55;15.43;;;10.63;;
7887;SDS011;3989;48.810;9.208;2023-07-02T11:34:31;13.20;;;10.20;;
7887;SDS011;3989;48.810;9.208;2023-07-02T11:37:00;12.88;;;10.18;;
7887;SDS011;3989;48.810;9.208;2023-07-02T11:39:28;13.93;;;10.40;;
7887;SDS011;3989;48.810;9.208;2023-07-02T11:41:55;12.48;;;10.00;;
7887;SDS011;3989;48.810;9.208;2023-07-02T11:44:22;12.77;;;9.55;;
7887;SDS011;3989;48.810;9.208;2023-07-02T11:46:48;10.98;;;8.75;;
7887;SDS011;3989;48.810;9.208;2023-07-02T11:49:17;10.65;;;9.50;;
7887;SDS011;3989;48.810;9.208;2023-07-02T11:51:44;13.02;;;9.73;;
7887;SDS011;3989;48.810;9.208;2023-07-02T11:54:13;10.45;;;9.00;;
7887;SDS011;3989;48.810;9.208;2023-07-02T11:56:44;12.73;;;8.82;;
7887;SDS011;3989;48.810;9.208;2023-07-02T11:59:12;14.57;;;10.55;;
7887;SDS011;3989;48.810;9.208;2023-07-02T12:01:44;13.02;;;10.45;;
7887;SDS011;3989;48.810;9.208;2023-07-02T12:04:35;10.98;;;9.88;;
7887;SDS011;3989;48.810;9.208;2023-07-02T12:07:04;12.82;;;9.35;;
7887;SDS011;3989;48.810;9.208;2023-07-02T12:09:31;14.98;;;10.43;;
7887;SDS011;3989;48.810;9.208;2023-07-02T12:11:57;15.02;;;10.27;;
7887;SDS011;3989;48.810;9.208;2023-07-02T12:14:24;11.98;;;10.38;;
7887;SDS011;3989;48.810;9.208;2023-07-02T12:16:51;12.25;;;10.60;;
7887;SDS011;3989;48.810;9.208;2023-07-02T12:19:18;12.93;;;10.35;;
7887;SDS011;3989;48.810;9.208;2023-07-02T12:21:47;13.18;;;10.80;;
7887;SDS011;3989;48.810;9.208;2023-07-02T12:24:13;15.75;;;10.55;;
7887;SDS011;3989;48.810;9.208;2023-07-02T12:26:40;12.63;;;9.93;;
7887;SDS011;3989;48.810;9.208;2023-07-02T12:29:08;13.52;;;10.93;;
7887;SDS011;3989;48.810;9.208;2023-07-02T12:31:35;11.75;;;9.88;;
7887;SDS011;3989;48.810;9.208;2023-07-02T12:34:02;11.10;;;9.98;;
7887;SDS011;3989;48.810;9.208;2023-07-02T12:36:29;14.10;;;10.30;;
7887;SDS011;3989;48.810;9.208;2023-07-02T12:38:57;13.07;;;11.68;;
7887;SDS011;3989;48.810;9.208;2023-07-02T12:41:24;13.40;;;9.77;;
7887;SDS011;3989;48.810;9.208;2023-07-02T12:43:50;15.75;;;11.00;;
7887;SDS011;3989;48.810;9.208;2023-07-02T12:46:17;15.13;;;10.48;;
7887;SDS011;3989;48.810;9.208;2023-07-02T12:48:44;15.50;;;10.05;;
7887;SDS011;3989;48.810;9.208;2023-07-02T12:51:13;15.15;;;10.70;;
7887;SDS011;3989;48.810;9.208;2023-07-02T12:53:40;12.98;;;11.10;;
7887;SDS011;3989;48.810;9.208;2023-07-02T12:56:08;12.93;;;11.35;;
7887;SDS011;3989;48.810;9.208;2023-07-02T12:58:34;14.48;;;12.00;;
7887;SDS011;3989;48.810;9.208;2023-07-02T13:01:01;12.50;;;11.02;;
7887;SDS011;3989;48.810;9.208;2023-07-02T13:03:29;11.75;;;10.48;;
7887;SDS011;3989;48.810;9.208;2023-07-02T13:05:57;14.10;;;10.25;;
7887;SDS011;3989;48.810;9.208;2023-07-02T13:08:23;12.07;;;10.07;;
7887;SDS011;3989;48.810;9.208;2023-07-02T13:10:50;12.30;;;9.82;;
7887;SDS011;3989;48.810;9.208;2023-07-02T13:13:18;13.90;;;10.43;;
7887;SDS011;3989;48.810;9.208;2023-07-02T13:15:45;13.55;;;10.05;;
7887;SDS011;3989;48.810;9.208;2023-07-02T13:18:11;14.25;;;11.27;;
7887;SDS011;3989;48.810;9.208;2023-07-02T13:20:39;15.60;;;11.02;;
7887;SDS011;3989;48.810;9.208;2023-07-02T13:23:06;12.15;;;10.23;;
7887;SDS011;3989;48.810;9.208;2023-07-02T13:25:33;14.02;;;11.15;;
7887;SDS011;3989;48.810;9.208;2023-07-02T13:27:59;12.45;;;10.80;;
7887;SDS011;3989;48.810;9.208;2023-07-02T13:30:27;12.13;;;9.57;;
7887;SDS011;3989;48.810;9.208;2023-07-02T13:32:56;11.57;;;10.38;;
7887;SDS011;3989;48.810;9.208;2023-07-02T13:35:22;12.82;;;10.65;;
7887;SDS011;3989;48.810;9.208;2023-07-02T13:37:49;11.68;;;10.50;;
7887;SDS011;3989;48.810;9.208;2023-07-02T13:40:17;12.57;;;9.68;;
7887;SDS011;3989;48.810;9.208;2023-07-02T13:42:43;11.90;;;9.90;;
7887;SDS011;3989;48.810;9.208;2023-07-02T13:45:10;12.95;;;9.98;;
7887;SDS011;3989;48.810;9.208;2023-07-02T13:47:38;12.45;;;9.90;;
7887;SDS011;3989;48.810;9.208;2023-07-02T13:50:06;13.63;;;9.85;;
7887;SDS011;3989;48.810;9.208;2023-07-02T13:52:32;12.32;;;10.50;;
7887;SDS011;3989;48.810;9.208;2023-07-02T13:54:59;13.40;;;11.00;;
7887;SDS011;3989;48.810;9.208;2023-07-02T13:57:26;14.65;;;10.55;;
7887;SDS011;3989;48.810;9.208;2023-07-02T13:59:54;17.77;;;11.32;;
7887;SDS011;3989;48.810;9.208;2023-07-02T14:02:22;12.18;;;10.38;;
7887;SDS011;3989;48.810;9.208;2023-07-02T14:04:48;11.60;;;10.20;;
7887;SDS011;3989;48.810;9.208;2023-07-02T14:07:16;13.68;;;8.88;;
7887;SDS011;3989;48.810;9.208;2023-07-02T14:09:42;13.63;;;10.25;;
7887;SDS011;3989;48.810;9.208;2023-07-02T14:12:09;12.20;;;10.85;;
7887;SDS011;3989;48.810;9.208;2023-07-02T14:14:37;12.38;;;10.98;;
7887;SDS011;3989;48.810;9.208;2023-07-02T14:17:05;10.98;;;9.75;;
7887;SDS011;3989;48.810;9.208;2023-07-02T14:19:32;11.07;;;9.52;;
7887;SDS011;3989;48.810;9.208;2023-07-02T14:21:59;12.15;;;10.75;;
7887;SDS011;3989;48.810;9.208;2023-07-02T14:24:26;13.50;;;10.90;;
7887;SDS011;3989;48.810;9.208;2023-07-02T14:26:55;12.35;;;10.68;;
7887;SDS011;3989;48.810;9.208;2023-07-02T14:29:22;12.10;;;10.32;;
7887;SDS011;3989;48.810;9.208;2023-07-02T14:31:49;12.65;;;10.15;;
7887;SDS011;3989;48.810;9.208;2023-07-02T14:34:17;13.18;;;11.68;;
7887;SDS011;3989;48.810;9.208;2023-07-02T14:36:44;11.40;;;10.25;;
7887;SDS011;3989;48.810;9.208;2023-07-02T14:39:11;11.73;;;10.15;;
7887;SDS011;3989;48.810;9.208;2023-07-02T14:41:38;12.82;;;11.05;;
7887;SDS011;3989;48.810;9.208;2023-07-02T14:44:05;11.40;;;10.15;;
7887;SDS011;3989;48.810;9.208;2023-07-02T14:46:32;13.38;;;11.77;;
7887;SDS011;3989;48.810;9.208;2023-07-02T14:48:59;13.13;;;11.65;;
7887;SDS011;3989;48.810;9.208;2023-07-02T14:51:27;14.05;;;11.30;;
7887;SDS011;3989;48.810;9.208;2023-07-02T14:53:53;11.88;;;10.77;;
7887;SDS011;3989;48.810;9.208;2023-07-02T14:56:21;12.10;;;10.85;;
7887;SDS011;3989;48.810;9.208;2023-07-02T14:58:48;13.82;;;10.95;;
7887;SDS011;3989;48.810;9.208;2023-07-02T15:01:15;12.57;;;11.25;;
7887;SDS011;3989;48.810;9.208;2023-07-02T15:03:42;12.00;;;10.80;;
7887;SDS011;3989;48.810;9.208;2023-07-02T15:06:09;11.63;;;10.38;;
7887;SDS011;3989;48.810;9.208;2023-07-02T15:08:39;12.77;;;11.27;;